createdAt,value
2022-10-06T00:00:19.176Z,77.23
2022-10-06T00:07:24.274Z,76.95
2022-10-06T00:10:29.957Z,77.01
2022-10-06T00:13:37.013Z,77.16
2022-10-06T00:16:42.931Z,77.27
2022-10-06T00:19:49.319Z,77.38
2022-10-06T00:22:58.573Z,77.62
2022-10-06T00:26:06.875Z,77.47
2022-10-06T00:29:13.648Z,77.73
2022-10-06T00:32:23.604Z,77.36
2022-10-06T00:35:32.651Z,77.56
2022-10-06T00:38:42.213Z,77.53
2022-10-06T00:41:50.270Z,77.38
2022-10-06T00:44:57.499Z,77.40
2022-10-06T00:48:08.044Z,77.41
2022-10-06T00:51:14.906Z,77.51
2022-10-06T00:54:23.910Z,77.35
2022-10-06T00:57:31.043Z,77.29
2022-10-06T01:00:37.310Z,77.21
2022-10-06T01:03:48.262Z,76.71
2022-10-06T01:06:57.454Z,76.50
2022-10-06T01:10:07.401Z,75.94
2022-10-06T01:13:16.250Z,75.69
2022-10-06T01:16:27.176Z,75.17
2022-10-06T01:19:47.736Z,74.81
2022-10-06T01:23:00.408Z,74.51
2022-10-06T01:26:12.658Z,74.07
2022-10-06T01:29:19.751Z,73.79
2022-10-06T01:32:26.965Z,73.51
2022-10-06T01:35:33.541Z,73.21
2022-10-06T01:38:42.394Z,72.89
2022-10-06T01:41:49.555Z,72.95
2022-10-06T01:44:56.837Z,72.55
2022-10-06T01:48:03.598Z,72.65
2022-10-06T01:51:10.185Z,72.28
2022-10-06T01:54:19.737Z,72.40
2022-10-06T01:57:25.342Z,72.33
2022-10-06T02:00:32.395Z,72.17
2022-10-06T02:03:44.454Z,72.28
2022-10-06T02:06:55.713Z,72.06
2022-10-06T02:10:10.393Z,71.94
2022-10-06T02:13:16.980Z,72.06
2022-10-06T02:16:23.886Z,71.85
2022-10-06T02:19:30.407Z,72.23
2022-10-06T02:22:43.339Z,72.07
2022-10-06T02:25:52.570Z,72.05
2022-10-06T02:28:58.200Z,72.13
2022-10-06T02:32:06.161Z,72.09
2022-10-06T02:35:12.955Z,72.24
2022-10-06T02:38:19.619Z,71.90
2022-10-06T02:41:31.289Z,72.17
2022-10-06T02:44:40.907Z,72.24
2022-10-06T02:47:47.018Z,72.18
2022-10-06T02:51:03.489Z,72.18
2022-10-06T02:54:09.629Z,72.40
2022-10-06T02:57:20.328Z,72.16
2022-10-06T03:00:26.002Z,72.29
2022-10-06T03:03:33.090Z,72.54
2022-10-06T03:06:38.896Z,72.60
2022-10-06T03:09:54.761Z,72.46
2022-10-06T03:13:06.660Z,72.36
2022-10-06T03:16:18.923Z,72.50
2022-10-06T03:19:24.772Z,72.52
2022-10-06T03:22:32.312Z,72.67
2022-10-06T03:25:38.713Z,72.90
2022-10-06T03:28:48.503Z,72.84
2022-10-06T03:31:54.725Z,73.09
2022-10-06T03:35:01.250Z,73.10
2022-10-06T03:38:07.667Z,73.13
2022-10-06T03:41:16.111Z,73.28
2022-10-06T03:44:24.943Z,73.28
2022-10-06T03:47:33.169Z,73.34
2022-10-06T03:50:39.273Z,73.49
2022-10-06T03:53:48.348Z,73.65
2022-10-06T03:56:54.381Z,73.63
2022-10-06T04:00:04.162Z,73.58
2022-10-06T04:03:29.960Z,73.77
2022-10-06T04:06:39.714Z,73.69
2022-10-06T04:09:48.428Z,73.74
2022-10-06T04:12:56.402Z,73.74
2022-10-06T04:16:13.229Z,73.81
2022-10-06T04:19:21.062Z,73.98
2022-10-06T04:22:29.833Z,74.04
2022-10-06T04:25:36.834Z,74.19
2022-10-06T04:28:47.051Z,74.17
2022-10-06T04:31:57.114Z,74.23
2022-10-06T04:35:15.562Z,74.04
2022-10-06T04:38:22.215Z,74.35
2022-10-06T04:41:29.796Z,74.30
2022-10-06T04:44:36.367Z,74.47
2022-10-06T04:47:45.479Z,74.43
2022-10-06T04:50:57.361Z,74.59
2022-10-06T04:54:04.138Z,74.51
2022-10-06T04:57:14.020Z,74.49
2022-10-06T05:00:26.969Z,74.54
2022-10-06T05:03:38.870Z,74.45
2022-10-06T05:06:45.995Z,74.52
2022-10-06T05:09:52.615Z,74.53
2022-10-06T05:12:58.399Z,74.70
2022-10-06T05:16:09.767Z,74.39
2022-10-06T05:19:19.716Z,74.58
2022-10-06T05:22:27.153Z,74.73
2022-10-06T05:25:32.971Z,74.72
2022-10-06T05:28:39.634Z,74.61
2022-10-06T05:31:45.598Z,74.64
2022-10-06T05:34:56.802Z,74.30
2022-10-06T05:38:03.914Z,74.28
2022-10-06T05:41:13.250Z,74.06
2022-10-06T05:44:19.135Z,74.14
2022-10-06T05:47:26.075Z,74.06
2022-10-06T05:50:34.921Z,73.82
2022-10-06T05:53:42.205Z,73.96
2022-10-06T05:56:48.159Z,73.85
2022-10-06T05:59:55.584Z,73.72
2022-10-06T06:03:03.473Z,73.33
2022-10-06T06:06:23.349Z,73.19
2022-10-06T06:09:31.120Z,73.38
2022-10-06T06:12:42.319Z,73.48
2022-10-06T06:16:11.231Z,73.65
2022-10-06T06:19:18.342Z,73.61
2022-10-06T06:22:28.427Z,73.54
2022-10-06T06:25:34.945Z,73.40
2022-10-06T06:28:41.571Z,73.23
2022-10-06T06:31:50.133Z,73.32
2022-10-06T06:34:56.324Z,73.06
2022-10-06T06:38:08.704Z,72.83
2022-10-06T06:41:19.049Z,73.07
2022-10-06T06:44:25.708Z,72.96
2022-10-06T06:47:39.399Z,72.79
2022-10-06T06:50:47.204Z,72.98
2022-10-06T06:53:59.385Z,73.12
2022-10-06T06:57:10.014Z,73.34
2022-10-06T07:00:16.839Z,72.79
2022-10-06T07:03:52.136Z,72.80
2022-10-06T07:06:59.103Z,72.39
2022-10-06T07:10:13.564Z,72.50
2022-10-06T07:13:20.810Z,72.28
2022-10-06T07:16:43.757Z,72.31
2022-10-06T07:20:04.999Z,71.67
2022-10-06T07:23:34.904Z,71.03
2022-10-06T07:26:45.284Z,71.24
2022-10-06T07:29:54.594Z,70.37
2022-10-06T07:33:00.564Z,70.62
2022-10-06T07:36:09.249Z,70.63
2022-10-06T07:39:14.994Z,69.42
2022-10-06T07:42:24.780Z,69.70
2022-10-06T07:45:45.790Z,69.12
2022-10-06T07:48:59.215Z,69.08
2022-10-06T07:52:06.847Z,68.27
2022-10-06T07:55:18.382Z,68.04
2022-10-06T07:58:45.673Z,68.68
2022-10-06T08:01:53.141Z,68.50
2022-10-06T08:04:59.052Z,68.43
2022-10-06T08:08:07.261Z,67.32
2022-10-06T08:11:14.632Z,68.35
2022-10-06T08:14:24.847Z,68.39
2022-10-06T08:17:30.539Z,68.26
2022-10-06T08:20:37.473Z,69.06
2022-10-06T08:23:43.741Z,68.31
2022-10-06T08:26:50.183Z,68.04
2022-10-06T08:29:59.121Z,68.95
2022-10-06T08:33:06.920Z,68.84
2022-10-06T08:36:15.041Z,69.49
2022-10-06T08:39:21.531Z,68.84
2022-10-06T08:42:41.595Z,69.10
2022-10-06T08:45:52.339Z,68.55
2022-10-06T08:48:58.692Z,67.99
2022-10-06T08:52:20.643Z,67.45
2022-10-06T08:55:37.280Z,67.64
2022-10-06T08:58:53.442Z,66.89
2022-10-06T09:02:08.334Z,66.70
2022-10-06T09:05:19.452Z,66.99
2022-10-06T09:08:44.123Z,67.36
2022-10-06T09:12:14.997Z,67.80
2022-10-06T09:15:33.897Z,67.96
2022-10-06T09:19:07.571Z,67.80
2022-10-06T09:22:22.781Z,66.44
2022-10-06T09:25:31.370Z,65.93
2022-10-06T09:28:37.719Z,65.75
2022-10-06T09:31:47.658Z,65.82
2022-10-06T09:34:59.968Z,65.30
2022-10-06T09:38:09.406Z,65.21
2022-10-06T09:41:16.353Z,65.73
2022-10-06T09:44:27.682Z,65.39
2022-10-06T09:47:45.479Z,65.08
2022-10-06T09:51:15.861Z,65.41
2022-10-06T09:54:22.364Z,65.50
2022-10-06T09:57:31.830Z,65.76
2022-10-06T10:00:39.552Z,65.30
2022-10-06T10:07:26.878Z,65.13
2022-10-06T10:10:34.630Z,64.31
2022-10-06T10:13:46.659Z,63.39
2022-10-06T10:16:53.782Z,63.68
2022-10-06T10:20:00.377Z,63.34
2022-10-06T10:23:30.166Z,63.12
2022-10-06T10:26:48.868Z,64.18
2022-10-06T10:30:06.104Z,63.99
2022-10-06T10:33:18.874Z,63.30
2022-10-06T10:36:32.010Z,63.51
2022-10-06T10:39:44.199Z,63.53
2022-10-06T10:42:54.761Z,63.05
2022-10-06T10:46:06.582Z,63.25
2022-10-06T10:49:21.519Z,61.77
2022-10-06T10:52:31.255Z,62.14
2022-10-06T10:55:44.995Z,62.16
2022-10-06T10:58:55.579Z,61.68
2022-10-06T11:02:06.406Z,61.80
2022-10-06T11:05:19.098Z,61.40
2022-10-06T11:08:33.388Z,60.93
2022-10-06T11:12:06.204Z,60.94
2022-10-06T11:15:24.553Z,59.00
2022-10-06T11:18:47.160Z,59.19
2022-10-06T11:22:03.983Z,59.76
2022-10-06T11:25:24.121Z,59.83
2022-10-06T11:28:41.530Z,60.99
2022-10-06T11:31:59.044Z,60.89
2022-10-06T11:35:20.518Z,60.60
2022-10-06T11:38:33.049Z,61.33
2022-10-06T11:41:44.416Z,61.10
2022-10-06T11:45:03.408Z,61.88
2022-10-06T11:48:30.178Z,61.72
2022-10-06T11:51:35.794Z,61.17
2022-10-06T11:54:50.826Z,60.97
2022-10-06T11:58:37.890Z,60.82
2022-10-06T12:01:57.768Z,61.01
2022-10-06T12:09:03.438Z,61.22
2022-10-06T12:13:31.697Z,61.02
2022-10-06T12:17:05.629Z,61.11
2022-10-06T12:20:12.221Z,60.23
2022-10-06T12:23:29.823Z,60.02
2022-10-06T12:26:44.457Z,59.96
2022-10-06T12:29:56.086Z,60.32
2022-10-06T12:33:05.904Z,60.60
2022-10-06T12:36:21.982Z,60.61
2022-10-06T12:39:27.791Z,60.66
2022-10-06T12:42:34.791Z,61.05
2022-10-06T12:45:46.051Z,61.27
2022-10-06T12:49:03.743Z,61.21
2022-10-06T12:52:21.630Z,61.17
2022-10-06T12:55:45.314Z,61.14
2022-10-06T12:58:50.965Z,61.19
2022-10-06T13:02:00.929Z,61.61
2022-10-06T13:05:14.909Z,61.42
2022-10-06T13:08:28.873Z,61.31
2022-10-06T13:11:35.013Z,61.37
2022-10-06T13:14:41.621Z,60.76
2022-10-06T13:17:50.834Z,61.12
2022-10-06T13:20:59.790Z,61.21
2022-10-06T13:24:14.882Z,60.69
2022-10-06T13:27:21.921Z,60.74
2022-10-06T13:30:27.955Z,61.06
2022-10-06T13:33:40.094Z,61.23
2022-10-06T13:36:48.298Z,61.18
2022-10-06T13:39:57.745Z,61.44
2022-10-06T13:43:06.047Z,61.20
2022-10-06T13:46:16.020Z,60.93
2022-10-06T13:49:26.123Z,61.15
2022-10-06T13:52:37.746Z,61.70
2022-10-06T13:55:52.573Z,62.25
2022-10-06T13:58:59.036Z,62.20
2022-10-06T14:02:24.397Z,61.91
2022-10-06T14:05:34.838Z,61.38
2022-10-06T14:08:40.963Z,61.68
2022-10-06T14:11:50.485Z,61.24
2022-10-06T14:14:56.700Z,61.42
2022-10-06T14:18:06.865Z,61.63
2022-10-06T14:21:31.081Z,62.10
2022-10-06T14:24:37.684Z,62.41
2022-10-06T14:27:46.341Z,62.58
2022-10-06T14:30:53.944Z,62.47
2022-10-06T14:34:00.040Z,62.69
2022-10-06T14:37:12.290Z,63.32
2022-10-06T14:40:17.943Z,63.79
2022-10-06T14:43:27.705Z,64.39
2022-10-06T14:46:34.320Z,64.94
2022-10-06T14:49:41.076Z,65.32
2022-10-06T14:52:47.012Z,65.43
2022-10-06T14:55:53.473Z,65.68
2022-10-06T14:59:06.033Z,66.08
2022-10-06T15:02:14.586Z,66.31
2022-10-06T15:05:20.303Z,66.50
2022-10-06T15:08:23.996Z,66.72
2022-10-06T15:11:31.234Z,66.67
2022-10-06T15:14:41.116Z,66.81
2022-10-06T15:17:46.964Z,67.29
2022-10-06T15:20:54.306Z,67.36
2022-10-06T15:24:03.206Z,67.44
2022-10-06T15:27:25.532Z,67.84
2022-10-06T15:30:33.898Z,68.06
2022-10-06T15:33:40.368Z,68.46
2022-10-06T15:36:46.264Z,68.65
2022-10-06T15:39:52.689Z,69.04
2022-10-06T15:42:58.287Z,68.63
2022-10-06T15:46:13.535Z,68.28
2022-10-06T15:49:21.347Z,68.30
2022-10-06T15:52:29.586Z,68.13
2022-10-06T15:55:35.173Z,68.08
2022-10-06T15:58:41.770Z,68.11
2022-10-06T16:01:50.254Z,67.24
2022-10-06T16:05:20.724Z,67.35
2022-10-06T16:08:26.378Z,67.01
2022-10-06T16:11:32.830Z,67.13
2022-10-06T16:14:38.603Z,67.30
2022-10-06T16:17:47.876Z,67.00
2022-10-06T16:20:56.955Z,67.05
2022-10-06T16:24:04.250Z,66.88
2022-10-06T16:27:15.810Z,66.91
2022-10-06T16:34:16.069Z,67.07
2022-10-06T16:37:23.811Z,67.46
2022-10-06T16:40:29.578Z,67.12
2022-10-06T16:43:37.994Z,67.06
2022-10-06T16:46:43.906Z,67.25
2022-10-06T16:49:53.178Z,67.39
2022-10-06T16:52:58.755Z,67.68
2022-10-06T16:56:11.022Z,67.71
2022-10-06T16:59:18.495Z,68.26
2022-10-06T17:02:25.078Z,68.38
2022-10-06T17:05:34.852Z,68.82
2022-10-06T17:08:42.524Z,68.94
2022-10-06T17:11:50.286Z,69.26
2022-10-06T17:14:56.680Z,69.17
2022-10-06T17:18:07.577Z,69.29
2022-10-06T17:21:43.299Z,69.43
2022-10-06T17:24:42.466Z,69.80
2022-10-06T17:27:48.869Z,69.62
2022-10-06T17:30:59.292Z,69.87
2022-10-06T17:34:10.067Z,69.94
2022-10-06T17:37:18.789Z,70.04
2022-10-06T17:40:26.190Z,70.62
2022-10-06T17:43:31.769Z,70.63
2022-10-06T17:46:41.276Z,70.85
2022-10-06T17:49:46.986Z,71.33
2022-10-06T17:52:56.697Z,71.66
2022-10-06T17:56:09.351Z,71.58
2022-10-06T17:59:17.908Z,71.98
2022-10-06T18:02:25.970Z,72.21
2022-10-06T18:05:33.390Z,72.40
2022-10-06T18:08:42.679Z,72.63
2022-10-06T18:11:54.920Z,72.91
2022-10-06T18:15:00.766Z,73.07
2022-10-06T18:18:09.021Z,73.31
2022-10-06T18:21:15.019Z,73.38
2022-10-06T18:24:26.152Z,73.54
2022-10-06T18:27:33.472Z,73.83
2022-10-06T18:30:39.861Z,74.04
2022-10-06T18:37:12.904Z,74.35
2022-10-06T18:40:21.502Z,74.64
2022-10-06T18:43:28.098Z,74.82
2022-10-06T18:46:50.327Z,74.97
2022-10-06T18:49:58.435Z,75.05
2022-10-06T18:53:04.622Z,75.06
2022-10-06T18:56:13.905Z,75.10
2022-10-06T18:59:20.012Z,75.20
2022-10-06T19:02:26.703Z,75.08
2022-10-06T19:05:32.720Z,74.93
2022-10-06T19:08:39.122Z,74.96
2022-10-06T19:11:51.929Z,75.05
2022-10-06T19:14:58.923Z,75.12
2022-10-06T19:18:08.062Z,75.09
2022-10-06T19:21:15.103Z,75.25
2022-10-06T19:24:24.072Z,75.34
2022-10-06T19:27:33.498Z,75.25
2022-10-06T19:30:39.218Z,75.27
2022-10-06T19:33:46.504Z,75.46
2022-10-06T19:36:53.086Z,75.41
2022-10-06T19:39:59.800Z,75.15
2022-10-06T19:43:08.820Z,75.21
2022-10-06T19:46:15.346Z,75.15
2022-10-06T19:49:21.623Z,75.16
2022-10-06T19:52:28.429Z,75.24
2022-10-06T19:55:34.226Z,75.31
2022-10-06T19:58:43.515Z,75.03
2022-10-06T20:01:49.825Z,75.12
2022-10-06T20:04:56.554Z,75.14
2022-10-06T20:08:07.964Z,75.00
2022-10-06T20:11:16.498Z,75.11
2022-10-06T20:14:26.635Z,75.04
2022-10-06T20:17:34.893Z,74.98
2022-10-06T20:20:40.500Z,75.10
2022-10-06T20:23:50.757Z,75.13
2022-10-06T20:26:57.143Z,75.00
2022-10-06T20:30:06.863Z,75.03
2022-10-06T20:33:12.773Z,75.08
2022-10-06T20:36:20.244Z,74.86
2022-10-06T20:39:42.210Z,75.00
2022-10-06T20:42:49.675Z,74.93
2022-10-06T20:45:59.931Z,75.18
2022-10-06T20:49:10.931Z,75.51
2022-10-06T20:52:17.128Z,75.71
2022-10-06T20:55:23.576Z,75.52
2022-10-06T20:58:29.692Z,75.64
2022-10-06T21:01:40.452Z,75.88
2022-10-06T21:04:46.291Z,75.93
2022-10-06T21:07:52.747Z,76.54
2022-10-06T21:10:58.942Z,76.60
2022-10-06T21:14:10.651Z,76.59
2022-10-06T21:17:19.058Z,76.66
2022-10-06T21:20:25.531Z,76.02
2022-10-06T21:23:31.922Z,76.18
2022-10-06T21:26:39.145Z,76.66
2022-10-06T21:29:44.738Z,77.11
2022-10-06T21:32:54.083Z,77.11
2022-10-06T21:36:04.026Z,77.09
2022-10-06T21:39:10.631Z,77.23
2022-10-06T21:42:16.218Z,77.54
2022-10-06T21:45:24.616Z,77.67
2022-10-06T21:48:33.806Z,77.55
2022-10-06T21:51:41.457Z,77.82
2022-10-06T21:54:47.506Z,77.62
2022-10-06T21:57:53.975Z,77.71
2022-10-06T22:01:06.288Z,77.91
2022-10-06T22:04:16.348Z,77.82
2022-10-06T22:07:21.998Z,78.04
2022-10-06T22:10:28.706Z,78.06
2022-10-06T22:13:34.378Z,78.08
2022-10-06T22:16:41.635Z,78.31
2022-10-06T22:19:50.019Z,78.65
2022-10-06T22:22:57.751Z,79.11
2022-10-06T22:26:06.928Z,79.19
2022-10-06T22:29:14.801Z,78.95
2022-10-06T22:32:20.335Z,78.86
2022-10-06T22:35:29.538Z,78.91
2022-10-06T22:38:36.023Z,78.79
2022-10-06T22:41:42.492Z,78.90
2022-10-06T22:44:48.112Z,79.26
2022-10-06T22:51:42.214Z,79.24
2022-10-06T22:54:48.670Z,79.54
2022-10-06T22:57:54.274Z,79.48
2022-10-06T23:01:00.728Z,79.49
2022-10-06T23:04:07.749Z,79.61
2022-10-06T23:07:16.940Z,79.76
2022-10-06T23:10:25.179Z,79.99
2022-10-06T23:13:33.514Z,80.20
2022-10-06T23:16:39.531Z,79.98
2022-10-06T23:19:46.082Z,80.27
2022-10-06T23:22:57.075Z,79.88
2022-10-06T23:26:08.433Z,80.31
2022-10-06T23:29:15.107Z,79.96
2022-10-06T23:32:22.182Z,80.22
2022-10-06T23:35:27.829Z,80.06
2022-10-06T23:38:38.026Z,80.15
2022-10-06T23:41:43.773Z,80.24
2022-10-06T23:44:50.422Z,79.98
2022-10-06T23:47:56.030Z,80.20
2022-10-06T23:51:04.045Z,80.22
2022-10-06T23:54:12.637Z,80.12
2022-10-06T23:57:19.089Z,80.12
